createdAt,value
2018-09-11T00:02:16.588Z,1.90
2018-09-11T00:04:45.303Z,2.27
2018-09-11T00:07:13.866Z,2.00
2018-09-11T00:09:42.518Z,2.00
2018-09-11T00:12:11.034Z,2.30
2018-09-11T00:14:39.576Z,2.30
2018-09-11T00:17:08.127Z,1.87
2018-09-11T00:19:36.678Z,2.23
2018-09-11T00:22:05.290Z,2.27
2018-09-11T00:24:33.842Z,2.63
2018-09-11T00:27:02.321Z,2.17
2018-09-11T00:29:30.857Z,2.43
2018-09-11T00:32:00.972Z,1.73
2018-09-11T00:34:29.623Z,2.23
2018-09-11T00:36:58.612Z,1.90
2018-09-11T00:39:27.200Z,1.90
2018-09-11T00:41:55.859Z,2.30
2018-09-11T00:44:24.398Z,2.40
2018-09-11T00:46:53.200Z,2.10
2018-09-11T00:49:21.707Z,2.20
2018-09-11T00:51:50.281Z,2.50
2018-09-11T00:54:18.926Z,2.47
2018-09-11T00:56:47.562Z,2.20
2018-09-11T00:59:16.092Z,2.43
2018-09-11T01:01:44.717Z,2.10
2018-09-11T01:04:13.207Z,2.53
2018-09-11T01:06:41.752Z,2.40
2018-09-11T01:09:10.986Z,2.70
2018-09-11T01:11:40.185Z,3.10
2018-09-11T01:14:11.640Z,3.33
2018-09-11T01:16:40.226Z,2.40
2018-09-11T01:19:08.693Z,2.80
2018-09-11T01:21:37.179Z,2.50
2018-09-11T01:24:05.702Z,3.33
2018-09-11T01:26:34.199Z,2.93
2018-09-11T01:29:03.792Z,2.80
2018-09-11T01:31:32.319Z,2.50
2018-09-11T01:34:00.830Z,3.23
2018-09-11T01:36:29.447Z,3.77
2018-09-11T01:38:57.910Z,3.90
2018-09-11T01:41:26.511Z,3.80
2018-09-11T01:43:55.399Z,3.60
2018-09-11T01:46:23.983Z,4.70
2018-09-11T01:48:52.544Z,4.60
2018-09-11T01:51:21.848Z,4.90
2018-09-11T01:53:51.016Z,5.20
2018-09-11T01:56:19.606Z,5.03
2018-09-11T01:58:48.221Z,4.97
2018-09-11T02:01:16.743Z,5.70
2018-09-11T02:03:45.392Z,5.20
2018-09-11T02:06:14.104Z,5.20
2018-09-11T02:08:42.556Z,5.73
2018-09-11T02:11:11.089Z,6.10
2018-09-11T02:13:39.722Z,6.20
2018-09-11T02:16:08.258Z,5.80
2018-09-11T02:18:36.909Z,5.83
2018-09-11T02:21:06.651Z,5.77
2018-09-11T02:23:35.771Z,5.57
2018-09-11T02:26:04.335Z,5.63
2018-09-11T02:28:32.805Z,5.40
2018-09-11T02:31:01.276Z,4.97
2018-09-11T02:33:29.732Z,5.33
2018-09-11T02:35:58.941Z,5.10
2018-09-11T02:38:28.137Z,5.93
2018-09-11T02:40:56.769Z,5.57
2018-09-11T02:43:29.296Z,5.53
2018-09-11T02:45:58.027Z,5.00
2018-09-11T02:48:26.584Z,4.70
2018-09-11T02:50:55.092Z,5.53
2018-09-11T02:53:24.187Z,5.07
2018-09-11T02:55:52.667Z,4.67
2018-09-11T02:58:21.121Z,4.70
2018-09-11T03:00:49.726Z,4.70
2018-09-11T03:03:18.284Z,4.40
2018-09-11T03:05:46.960Z,4.93
2018-09-11T03:08:15.470Z,4.90
2018-09-11T03:10:44.028Z,4.70
2018-09-11T03:13:12.581Z,4.57
2018-09-11T03:15:41.025Z,4.73
2018-09-11T03:18:09.566Z,4.70
2018-09-11T03:20:38.169Z,4.20
2018-09-11T03:23:06.707Z,4.43
2018-09-11T03:25:35.153Z,4.53
2018-09-11T03:28:03.794Z,4.80
2018-09-11T03:30:32.377Z,4.43
2018-09-11T03:33:00.827Z,4.40
2018-09-11T03:35:29.326Z,5.17
2018-09-11T03:37:57.871Z,5.10
2018-09-11T03:40:26.433Z,4.93
2018-09-11T03:42:55.018Z,4.53
2018-09-11T03:45:26.329Z,5.07
2018-09-11T03:47:55.425Z,5.60
2018-09-11T03:50:24.641Z,4.47
2018-09-11T03:52:53.932Z,4.77
2018-09-11T03:55:25.291Z,6.07
2018-09-11T03:57:53.756Z,5.70
2018-09-11T04:00:22.269Z,5.33
2018-09-11T04:02:50.847Z,5.50
2018-09-11T04:05:19.432Z,5.43
2018-09-11T04:07:47.896Z,5.40
2018-09-11T04:10:16.433Z,4.90
2018-09-11T04:12:44.880Z,5.40
2018-09-11T04:15:14.070Z,4.90
2018-09-11T04:17:42.890Z,6.13
2018-09-11T04:20:11.371Z,5.63
2018-09-11T04:22:40.314Z,5.17
2018-09-11T04:25:09.204Z,6.53
2018-09-11T04:27:37.885Z,5.40
2018-09-11T04:30:06.543Z,5.77
2018-09-11T04:32:35.126Z,6.23
2018-09-11T04:35:03.799Z,5.50
2018-09-11T04:37:32.440Z,5.90
2018-09-11T04:40:00.946Z,6.03
2018-09-11T04:42:29.507Z,5.80
2018-09-11T04:44:58.147Z,5.30
2018-09-11T04:47:26.768Z,6.30
2018-09-11T04:49:55.523Z,6.43
2018-09-11T04:52:24.003Z,6.27
2018-09-11T04:54:52.663Z,6.27
2018-09-11T04:57:21.214Z,6.43
2018-09-11T04:59:49.821Z,6.47
2018-09-11T05:02:18.259Z,5.67
2018-09-11T05:04:46.700Z,5.57
2018-09-11T05:07:15.171Z,6.30
2018-09-11T05:09:43.629Z,5.60
2018-09-11T05:12:13.187Z,6.37
2018-09-11T05:14:41.641Z,6.07
2018-09-11T05:17:10.157Z,6.20
2018-09-11T05:19:38.711Z,6.03
2018-09-11T05:22:07.259Z,6.03
2018-09-11T05:24:35.725Z,6.73
2018-09-11T05:27:04.218Z,6.40
2018-09-11T05:29:32.715Z,6.80
2018-09-11T05:32:01.148Z,6.83
2018-09-11T05:34:29.923Z,7.93
2018-09-11T05:36:58.457Z,7.47
2018-09-11T05:39:26.934Z,7.53
2018-09-11T05:41:55.416Z,7.77
2018-09-11T05:44:24.308Z,7.27
2018-09-11T05:46:53.736Z,7.73
2018-09-11T05:49:22.290Z,8.63
2018-09-11T05:51:51.507Z,8.47
2018-09-11T05:54:19.982Z,8.07
2018-09-11T05:56:48.441Z,8.20
2018-09-11T05:59:16.843Z,8.60
2018-09-11T06:01:45.564Z,8.53
2018-09-11T06:04:14.040Z,8.10
2018-09-11T06:06:42.516Z,7.10
2018-09-11T06:09:12.620Z,7.50
2018-09-11T06:11:41.261Z,7.33
2018-09-11T06:14:09.942Z,5.93
2018-09-11T06:16:38.455Z,6.37
2018-09-11T06:19:07.114Z,5.93
2018-09-11T06:21:35.550Z,5.50
2018-09-11T06:24:03.978Z,5.53
2018-09-11T06:26:32.369Z,5.33
2018-09-11T06:29:01.287Z,4.67
2018-09-11T06:31:29.698Z,4.83
2018-09-11T06:33:58.105Z,4.77
2018-09-11T06:36:27.200Z,5.07
2018-09-11T06:38:56.478Z,4.80
2018-09-11T06:41:24.916Z,3.70
2018-09-11T06:43:53.396Z,4.17
2018-09-11T06:46:21.815Z,3.83
2018-09-11T06:48:50.224Z,3.77
2018-09-11T06:51:18.653Z,4.13
2018-09-11T06:53:47.048Z,4.50
2018-09-11T06:56:15.526Z,5.20
2018-09-11T06:58:44.051Z,7.07
2018-09-11T07:01:12.437Z,4.50
2018-09-11T07:03:40.899Z,2.87
2018-09-11T07:06:10.039Z,2.87
2018-09-11T07:08:38.803Z,3.07
2018-09-11T07:11:07.705Z,3.73
2018-09-11T07:13:36.493Z,2.87
2018-09-11T07:16:05.008Z,2.87
2018-09-11T07:18:34.429Z,2.37
2018-09-11T07:21:02.948Z,2.87
2018-09-11T07:23:31.878Z,2.13
2018-09-11T07:26:01.603Z,2.20
2018-09-11T07:28:30.178Z,2.33
2018-09-11T07:30:58.760Z,2.17
2018-09-11T07:33:27.259Z,2.50
2018-09-11T07:35:56.011Z,1.80
2018-09-11T07:38:25.028Z,2.20
2018-09-11T07:40:54.112Z,2.20
2018-09-11T07:43:23.242Z,1.77
2018-09-11T07:45:52.297Z,2.07
2018-09-11T07:48:20.739Z,2.00
2018-09-11T07:50:49.266Z,2.00
2018-09-11T07:53:17.756Z,2.07
2018-09-11T07:55:46.217Z,2.00
2018-09-11T07:58:14.706Z,2.33
2018-09-11T08:00:43.571Z,2.07
2018-09-11T08:03:12.244Z,1.87
2018-09-11T08:05:42.349Z,2.00
2018-09-11T08:08:10.900Z,2.10
2018-09-11T08:10:39.431Z,1.70
2018-09-11T08:13:08.017Z,2.20
2018-09-11T08:15:36.556Z,2.17
2018-09-11T08:18:05.455Z,2.27
2018-09-11T08:20:34.007Z,1.98
2018-09-11T08:23:03.659Z,2.45
2018-09-11T08:25:32.247Z,2.00
2018-09-11T08:28:01.847Z,1.80
2018-09-11T08:30:32.576Z,1.90
2018-09-11T08:33:02.052Z,2.08
2018-09-11T08:35:30.736Z,2.45
2018-09-11T08:37:59.446Z,1.77
2018-09-11T08:40:28.588Z,1.87
2018-09-11T08:42:57.027Z,2.20
2018-09-11T08:45:25.538Z,2.35
2018-09-11T08:47:54.062Z,2.50
2018-09-11T08:50:22.520Z,2.37
2018-09-11T08:52:51.064Z,2.30
2018-09-11T08:55:19.817Z,2.20
2018-09-11T08:57:48.405Z,2.10
2018-09-11T09:00:17.140Z,1.80
2018-09-11T09:02:45.861Z,1.90
2018-09-11T09:05:14.416Z,2.10
2018-09-11T09:07:43.032Z,2.40
2018-09-11T09:10:11.587Z,2.03
2018-09-11T09:12:40.062Z,2.60
2018-09-11T09:15:08.744Z,2.23
2018-09-11T09:17:37.379Z,2.37
2018-09-11T09:20:06.014Z,2.43
2018-09-11T09:22:34.550Z,2.23
2018-09-11T09:25:03.143Z,2.30
2018-09-11T09:27:32.452Z,2.37
2018-09-11T09:30:01.017Z,2.43
2018-09-11T09:32:29.689Z,1.80
2018-09-11T09:34:58.180Z,2.20
2018-09-11T09:37:27.585Z,2.67
2018-09-11T09:39:56.130Z,2.40
2018-09-11T09:42:24.752Z,2.57
2018-09-11T09:44:53.366Z,2.13
2018-09-11T09:47:21.891Z,2.37
2018-09-11T09:49:50.704Z,2.23
2018-09-11T09:52:19.287Z,2.07
2018-09-11T09:54:47.830Z,2.10
2018-09-11T09:57:16.311Z,2.20
2018-09-11T09:59:44.857Z,2.30
2018-09-11T10:02:18.642Z,1.97
2018-09-11T10:04:47.295Z,2.33
2018-09-11T10:07:15.842Z,2.23
2018-09-11T10:09:44.287Z,2.37
2018-09-11T10:12:12.897Z,2.37
2018-09-11T10:14:42.131Z,2.47
2018-09-11T10:17:11.971Z,2.33
2018-09-11T10:19:40.702Z,2.50
2018-09-11T10:22:09.628Z,2.50
2018-09-11T10:24:38.023Z,1.90
2018-09-11T10:27:06.608Z,2.00
2018-09-11T10:29:35.543Z,2.57
2018-09-11T10:32:05.312Z,2.00
2018-09-11T10:34:35.115Z,1.90
2018-09-11T10:37:03.698Z,2.40
2018-09-11T10:39:32.268Z,2.10
2018-09-11T10:42:00.748Z,2.03
2018-09-11T10:44:29.555Z,2.00
2018-09-11T10:46:58.495Z,2.20
2018-09-11T10:49:26.971Z,2.20
2018-09-11T10:51:55.494Z,2.17
2018-09-11T10:54:24.020Z,1.90
2018-09-11T10:56:52.740Z,2.13
2018-09-11T10:59:21.344Z,2.17
2018-09-11T11:01:50.231Z,2.40
2018-09-11T11:04:19.067Z,2.17
2018-09-11T11:06:48.518Z,2.13
2018-09-11T11:09:17.052Z,2.17
2018-09-11T11:11:45.707Z,2.30
2018-09-11T11:14:14.441Z,2.30
2018-09-11T11:16:43.500Z,2.10
2018-09-11T11:19:11.991Z,1.90
2018-09-11T11:21:41.348Z,2.30
2018-09-11T11:24:10.051Z,2.60
2018-09-11T11:26:38.748Z,2.57
2018-09-11T11:29:07.336Z,2.40
2018-09-11T11:31:35.885Z,2.20
2018-09-11T11:34:04.569Z,2.53
2018-09-11T11:36:33.215Z,2.70
2018-09-11T11:39:01.999Z,2.27
2018-09-11T11:41:30.644Z,2.05
2018-09-11T11:43:59.230Z,1.77
2018-09-11T11:46:28.251Z,2.10
2018-09-11T11:48:56.916Z,2.25
2018-09-11T11:51:25.789Z,2.20
2018-09-11T11:53:54.373Z,2.08
2018-09-11T11:56:22.916Z,2.27
2018-09-11T11:58:51.415Z,2.15
2018-09-11T12:01:20.203Z,2.25
2018-09-11T12:03:48.828Z,2.42
2018-09-11T12:06:17.364Z,2.05
2018-09-11T12:08:45.971Z,1.62
2018-09-11T12:11:14.615Z,1.95
2018-09-11T12:13:43.319Z,1.87
2018-09-11T12:16:11.938Z,1.72
2018-09-11T12:18:40.356Z,1.82
2018-09-11T12:21:08.897Z,1.72
2018-09-11T12:23:37.596Z,1.92
2018-09-11T12:26:06.313Z,1.95
2018-09-11T12:28:34.904Z,1.70
2018-09-11T12:31:03.510Z,1.80
2018-09-11T12:33:32.139Z,1.90
2018-09-11T12:36:00.776Z,1.70
2018-09-11T12:38:29.441Z,1.77
2018-09-11T12:40:57.937Z,1.90
2018-09-11T12:43:26.627Z,1.70
2018-09-11T12:45:56.336Z,1.70
2018-09-11T12:48:25.632Z,2.20
2018-09-11T12:50:54.095Z,1.62
2018-09-11T12:53:23.255Z,1.60
2018-09-11T12:55:51.872Z,1.50
2018-09-11T12:58:20.394Z,1.80
2018-09-11T13:00:49.272Z,1.70
2018-09-11T13:03:17.754Z,1.60
2018-09-11T13:05:46.333Z,1.95
2018-09-11T13:08:34.566Z,2.00
2018-09-11T13:11:03.074Z,1.47
2018-09-11T13:13:31.820Z,1.50
2018-09-11T13:16:00.331Z,1.65
2018-09-11T13:18:29.112Z,1.37
2018-09-11T13:20:57.629Z,1.40
2018-09-11T13:23:26.154Z,1.55
2018-09-11T13:25:55.177Z,1.70
2018-09-11T13:28:23.739Z,1.50
2018-09-11T13:30:52.963Z,1.32
2018-09-11T13:33:21.821Z,1.27
2018-09-11T13:35:50.309Z,1.40
2018-09-11T13:38:18.850Z,1.67
2018-09-11T13:40:47.394Z,1.40
2018-09-11T13:43:15.877Z,1.20
2018-09-11T13:45:44.507Z,1.40
2018-09-11T13:48:12.975Z,1.60
2018-09-11T13:50:41.723Z,1.40
2018-09-11T13:53:10.356Z,1.17
2018-09-11T13:55:39.301Z,1.70
2018-09-11T13:58:07.943Z,1.15
2018-09-11T14:00:37.436Z,1.05
2018-09-11T14:03:07.056Z,1.27
2018-09-11T14:05:35.619Z,1.60
2018-09-11T14:08:04.116Z,1.50
2018-09-11T14:10:32.542Z,1.45
2018-09-11T14:13:01.056Z,1.20
2018-09-11T14:15:29.615Z,1.22
2018-09-11T14:17:58.171Z,1.25
2018-09-11T14:20:26.738Z,1.20
2018-09-11T14:22:55.155Z,1.20
2018-09-11T14:25:23.845Z,1.40
2018-09-11T14:27:52.357Z,1.37
2018-09-11T14:30:20.929Z,1.30
2018-09-11T14:32:56.141Z,1.20
2018-09-11T14:35:24.587Z,1.20
2018-09-11T14:37:53.108Z,1.02
2018-09-11T14:40:21.620Z,1.25
2018-09-11T14:42:50.095Z,1.45
2018-09-11T14:45:18.664Z,1.47
2018-09-11T14:47:47.890Z,1.45
2018-09-11T14:50:16.628Z,1.77
2018-09-11T14:52:45.472Z,1.55
2018-09-11T14:55:13.979Z,1.10
2018-09-11T14:57:42.501Z,1.15
2018-09-11T15:00:11.245Z,1.92
2018-09-11T15:02:40.254Z,1.42
2018-09-11T15:05:08.978Z,1.07
2018-09-11T15:07:37.576Z,1.30
2018-09-11T15:10:06.275Z,1.70
2018-09-11T15:12:34.994Z,1.17
2018-09-11T15:15:03.550Z,1.60
2018-09-11T15:17:32.347Z,1.32
2018-09-11T15:20:00.985Z,1.35
2018-09-11T15:22:32.398Z,1.42
2018-09-11T15:25:03.766Z,1.40
2018-09-11T15:27:32.484Z,1.20
2018-09-11T15:30:01.660Z,1.35
2018-09-11T15:32:30.495Z,1.50
2018-09-11T15:34:59.195Z,1.20
2018-09-11T15:37:27.733Z,1.20
2018-09-11T15:39:56.241Z,1.30
2018-09-11T15:42:24.974Z,1.25
2018-09-11T15:44:53.918Z,1.55
2018-09-11T15:47:22.552Z,1.65
2018-09-11T15:49:51.103Z,1.62
2018-09-11T15:52:19.552Z,1.32
2018-09-11T15:54:48.098Z,1.70
2018-09-11T15:57:16.639Z,1.35
2018-09-11T15:59:45.166Z,1.60
2018-09-11T16:02:14.160Z,1.50
2018-09-11T16:04:42.761Z,1.30
2018-09-11T16:07:11.761Z,1.20
2018-09-11T16:09:40.252Z,1.50
2018-09-11T16:12:08.816Z,1.60
2018-09-11T16:14:37.733Z,1.20
2018-09-11T16:17:06.212Z,1.25
2018-09-11T16:19:34.858Z,1.10
2018-09-11T16:22:04.012Z,1.45
2018-09-11T16:24:32.778Z,1.30
2018-09-11T16:27:02.217Z,1.40
2018-09-11T16:29:30.740Z,1.60
2018-09-11T16:31:59.317Z,1.30
2018-09-11T16:34:27.878Z,1.52
2018-09-11T16:36:56.363Z,1.52
2018-09-11T16:39:24.983Z,1.90
2018-09-11T16:41:53.516Z,1.40
2018-09-11T16:44:22.003Z,1.85
2018-09-11T16:46:50.420Z,1.62
2018-09-11T16:49:19.199Z,1.50
2018-09-11T16:51:47.789Z,1.80
2018-09-11T16:54:16.316Z,1.57
2018-09-11T16:56:44.859Z,1.37
2018-09-11T16:59:13.920Z,1.77
2018-09-11T17:01:43.343Z,1.67
2018-09-11T17:04:12.962Z,1.55
2018-09-11T17:06:41.441Z,1.55
2018-09-11T17:09:11.166Z,1.57
2018-09-11T17:11:40.244Z,1.52
2018-09-11T17:14:08.735Z,1.62
2018-09-11T17:16:37.250Z,1.67
2018-09-11T17:19:05.902Z,1.50
2018-09-11T17:21:34.634Z,1.42
2018-09-11T17:24:03.209Z,1.52
2018-09-11T17:26:31.719Z,1.30
2018-09-11T17:29:01.095Z,1.65
2018-09-11T17:31:29.720Z,2.10
2018-09-11T17:33:58.375Z,1.90
2018-09-11T17:36:26.980Z,1.55
2018-09-11T17:38:55.654Z,1.77
2018-09-11T17:41:24.139Z,1.60
2018-09-11T17:43:52.615Z,1.40
2018-09-11T17:46:21.293Z,1.80
2018-09-11T17:48:51.505Z,1.50
2018-09-11T17:51:20.313Z,1.80
2018-09-11T17:53:49.680Z,1.67
2018-09-11T17:56:18.192Z,1.63
2018-09-11T17:58:46.681Z,1.53
2018-09-11T18:01:15.148Z,1.70
2018-09-11T18:03:43.621Z,1.80
2018-09-11T18:06:12.151Z,1.40
2018-09-11T18:08:40.501Z,1.57
2018-09-11T18:11:08.977Z,1.77
2018-09-11T18:13:37.404Z,1.50
2018-09-11T18:16:05.927Z,2.20
2018-09-11T18:18:34.431Z,2.08
2018-09-11T18:21:02.982Z,2.05
2018-09-11T18:23:33.029Z,1.60
2018-09-11T18:26:02.324Z,1.60
2018-09-11T18:28:31.279Z,1.77
2018-09-11T18:31:00.244Z,1.60
2018-09-11T18:33:28.948Z,1.70
2018-09-11T18:35:58.031Z,1.80
2018-09-11T18:38:26.750Z,2.05
2018-09-11T18:40:55.530Z,1.67
2018-09-11T18:43:24.007Z,1.97
2018-09-11T18:45:52.555Z,1.67
2018-09-11T18:48:22.041Z,1.43
2018-09-11T18:50:51.322Z,1.90
2018-09-11T18:53:21.508Z,2.03
2018-09-11T18:55:54.393Z,1.60
2018-09-11T18:58:42.536Z,1.87
2018-09-11T19:01:11.863Z,1.70
2018-09-11T19:03:42.381Z,2.13
2018-09-11T19:06:33.657Z,1.60
2018-09-11T19:09:14.448Z,1.80
2018-09-11T19:11:57.998Z,1.80
2018-09-11T19:14:26.562Z,2.10
2018-09-11T19:16:55.460Z,2.02
2018-09-11T19:19:23.936Z,1.80
2018-09-11T19:21:52.443Z,1.57
2018-09-11T19:24:21.003Z,1.80
2018-09-11T19:26:49.531Z,1.92
2018-09-11T19:29:19.106Z,2.10
2018-09-11T19:31:48.158Z,2.33
2018-09-11T19:34:21.866Z,2.15
2018-09-11T19:36:50.664Z,2.03
2018-09-11T19:39:19.048Z,1.67
2018-09-11T19:41:47.517Z,2.08
2018-09-11T19:44:16.027Z,2.25
2018-09-11T19:46:45.024Z,2.10
2018-09-11T19:49:13.477Z,2.10
2018-09-11T19:51:41.993Z,2.13
2018-09-11T19:54:11.762Z,2.30
2018-09-11T19:56:40.229Z,1.90
2018-09-11T19:59:08.787Z,1.90
2018-09-11T20:01:37.805Z,1.83
2018-09-11T20:04:06.824Z,2.00
2018-09-11T20:06:35.292Z,2.27
2018-09-11T20:09:04.924Z,1.97
2018-09-11T20:11:33.613Z,2.23
2018-09-11T20:16:54.955Z,2.10
2018-09-11T20:19:23.702Z,2.40
2018-09-11T20:21:52.468Z,2.07
2018-09-11T20:24:21.083Z,2.20
2018-09-11T20:26:50.269Z,2.00
2018-09-11T20:29:18.846Z,1.80
2018-09-11T20:31:47.336Z,2.40
2018-09-11T20:34:16.157Z,2.03
2018-09-11T20:36:44.665Z,2.30
2018-09-11T20:39:13.686Z,2.07
2018-09-11T20:41:42.215Z,2.30
2018-09-11T20:44:11.513Z,2.20
2018-09-11T20:46:40.061Z,2.13
2018-09-11T20:49:08.523Z,2.27
2018-09-11T20:51:37.016Z,2.60
2018-09-11T20:54:05.519Z,2.20
2018-09-11T20:56:34.364Z,2.10
2018-09-11T20:59:02.819Z,1.90
2018-09-11T21:01:31.354Z,2.00
2018-09-11T21:03:59.752Z,2.10
2018-09-11T21:06:28.452Z,2.37
2018-09-11T21:08:56.970Z,2.30
2018-09-11T21:11:25.504Z,2.30
2018-09-11T21:13:53.990Z,2.00
2018-09-11T21:16:23.047Z,2.40
2018-09-11T21:18:52.129Z,1.93
2018-09-11T21:21:20.741Z,2.33
2018-09-11T21:23:51.753Z,2.10
2018-09-11T21:26:20.318Z,2.23
2018-09-11T21:28:49.116Z,2.13
2018-09-11T21:31:32.636Z,2.67
2018-09-11T21:34:01.210Z,2.80
2018-09-11T21:36:30.266Z,2.40
2018-09-11T21:38:59.573Z,2.40
2018-09-11T21:41:28.075Z,2.33
2018-09-11T21:43:56.583Z,2.20
2018-09-11T21:46:25.177Z,2.00
2018-09-11T21:48:53.705Z,2.27
2018-09-11T21:51:22.231Z,2.70
2018-09-11T21:53:50.722Z,2.10
2018-09-11T21:56:19.340Z,2.23
2018-09-11T21:58:47.882Z,2.30
2018-09-11T22:01:22.199Z,2.00
2018-09-11T22:03:50.769Z,2.30
2018-09-11T22:06:19.442Z,2.77
2018-09-11T22:08:47.983Z,2.17
2018-09-11T22:11:16.803Z,2.33
2018-09-11T22:13:45.820Z,2.30
2018-09-11T22:16:14.455Z,2.77
2018-09-11T22:18:43.234Z,2.20
2018-09-11T22:21:12.537Z,2.30
2018-09-11T22:23:41.251Z,2.33
2018-09-11T22:26:10.760Z,2.77
2018-09-11T22:28:39.292Z,2.60
2018-09-11T22:31:07.933Z,2.67
2018-09-11T22:33:37.344Z,2.63
2018-09-11T22:36:05.940Z,2.70
2018-09-11T22:38:34.610Z,2.90
2018-09-11T22:41:03.066Z,2.67
2018-09-11T22:43:31.559Z,2.60
2018-09-11T22:46:00.699Z,2.67
2018-09-11T22:48:29.275Z,2.63
2018-09-11T22:50:57.950Z,2.40
2018-09-11T22:53:26.518Z,2.30
2018-09-11T22:55:55.013Z,2.13
2018-09-11T22:58:23.604Z,2.47
2018-09-11T23:00:52.362Z,2.70
2018-09-11T23:03:20.876Z,2.10
2018-09-11T23:05:50.388Z,2.50
2018-09-11T23:08:18.921Z,2.57
2018-09-11T23:10:47.512Z,2.53
2018-09-11T23:13:16.441Z,2.40
2018-09-11T23:15:44.974Z,2.30
2018-09-11T23:18:14.392Z,2.20
2018-09-11T23:20:42.979Z,2.47
2018-09-11T23:23:11.656Z,2.40
2018-09-11T23:25:40.128Z,2.40
2018-09-11T23:28:08.591Z,2.33
2018-09-11T23:30:37.044Z,2.40
2018-09-11T23:33:05.560Z,2.70
2018-09-11T23:35:34.233Z,2.40
2018-09-11T23:38:02.743Z,3.07
2018-09-11T23:40:31.309Z,2.07
2018-09-11T23:42:59.887Z,2.27
2018-09-11T23:45:29.791Z,2.43
2018-09-11T23:47:58.912Z,2.57
2018-09-11T23:50:27.302Z,2.57
2018-09-11T23:52:55.966Z,2.10
2018-09-11T23:55:25.154Z,2.67
2018-09-11T23:57:53.701Z,2.33
